Time;durP1;ratioP1;P1;durP2;ratioP2;P2;SDS_P1;SDS_P2;PMS_P1;PMS_P2;Temp;Humidity;BMP_temperature;BMP_pressure;BME280_temperature;BME280_humidity;BME280_pressure;Samples;Min_cycle;Max_cycle;Signal;HPM_P1;HPM_P2
2022/08/10 00:00:22;;;;;;;3.72;2.25;;;;;;;17.81;82.04;102471.19;5225218;28;20029;-65
2022/08/10 00:02:56;;;;;;;5.70;2.05;;;;;;;17.78;82.14;102479.53;5242806;28;20036;-65
2022/08/10 00:05:27;;;;;;;4.07;1.85;;;;;;;17.77;81.48;102477.81;5258287;28;20026;-65
2022/08/10 00:07:59;;;;;;;4.00;2.10;;;;;;;17.73;81.61;102476.34;5229521;28;20060;-66
2022/08/10 00:10:30;;;;;;;5.05;2.10;;;;;;;17.68;82.33;102475.84;5229518;28;20025;-66
2022/08/10 00:13:01;;;;;;;5.00;2.17;;;;;;;17.68;82.79;102476.72;5255280;28;20027;-66
2022/08/10 00:15:32;;;;;;;4.13;1.98;;;;;;;17.61;83.14;102476.34;5235678;28;20026;-66
2022/08/10 00:18:04;;;;;;;3.40;2.10;;;;;;;17.66;83.13;102475.13;5233924;28;20025;-66
2022/08/10 00:20:35;;;;;;;6.45;1.98;;;;;;;17.58;83.91;102471.19;5245273;28;20105;-66
2022/08/10 00:23:06;;;;;;;3.88;2.08;;;;;;;17.56;83.16;102472.31;5238775;28;20035;-66
2022/08/10 00:25:38;;;;;;;4.80;1.90;;;;;;;17.49;83.83;102471.06;5253354;28;20027;-67
2022/08/10 00:28:09;;;;;;;7.10;2.15;;;;;;;17.48;83.11;102467.53;5229414;28;20022;-66
2022/08/10 00:30:40;;;;;;;3.90;2.10;;;;;;;17.55;83.59;102457.09;5236384;28;20513;-67
2022/08/10 00:33:11;;;;;;;3.63;1.90;;;;;;;17.41;84.03;102458.19;5226594;28;20031;-67
2022/08/10 00:35:43;;;;;;;3.50;2.00;;;;;;;17.49;84.60;102460.28;5252985;28;20045;-66
2022/08/10 00:38:14;;;;;;;3.47;2.40;;;;;;;17.38;85.74;102459.31;5241641;28;20484;-67
2022/08/10 00:40:46;;;;;;;4.43;2.10;;;;;;;17.37;84.99;102454.91;5210171;28;20107;-66
2022/08/10 00:43:17;;;;;;;3.22;2.10;;;;;;;17.38;86.52;102456.59;5243748;28;20074;-67
2022/08/10 00:45:48;;;;;;;3.28;2.10;;;;;;;17.31;86.53;102452.69;5217075;28;20056;-67
2022/08/10 00:48:20;;;;;;;4.05;2.08;;;;;;;17.22;87.06;102453.41;5251421;28;20034;-66
2022/08/10 00:50:51;;;;;;;3.85;2.00;;;;;;;17.18;85.33;102455.50;5245845;28;20028;-66
2022/08/10 00:53:22;;;;;;;4.32;2.00;;;;;;;17.17;86.32;102461.03;5211440;28;20033;-66
2022/08/10 00:55:54;;;;;;;4.55;2.17;;;;;;;17.23;87.52;102457.84;5221007;28;20160;-67
2022/08/10 00:58:26;;;;;;;4.97;2.40;;;;;;;17.22;88.00;102448.00;5227234;28;20038;-66
2022/08/10 01:00:57;;;;;;;3.63;2.00;;;;;;;17.20;86.24;102448.16;5217905;28;20042;-66
2022/08/10 01:03:29;;;;;;;3.00;1.90;;;;;;;17.12;85.75;102455.13;5206475;28;20022;-66
2022/08/10 01:06:08;;;;;;;4.15;2.03;;;;;;;17.10;86.39;102452.53;5244224;28;20030;-67
2022/08/10 01:09:01;;;;;;;5.53;2.45;;;;;;;17.10;85.33;102446.28;5215743;28;20143;-66
2022/08/10 01:11:42;;;;;;;5.30;2.30;;;;;;;17.07;87.20;102446.53;5203516;28;21296;-67
2022/08/10 01:14:37;;;;;;;3.03;2.10;;;;;;;17.03;86.06;102441.38;5234543;28;20040;-67
2022/08/10 01:17:16;;;;;;;4.07;2.40;;;;;;;16.96;86.99;102442.00;5245691;28;20085;-67
2022/08/10 01:20:05;;;;;;;4.13;2.40;;;;;;;16.91;87.21;102438.78;5228188;28;20268;-67
2022/08/10 01:22:53;;;;;;;4.18;2.60;;;;;;;16.97;89.33;102439.19;5226009;28;20509;-66
2022/08/10 01:25:36;;;;;;;3.97;2.70;;;;;;;16.89;87.32;102435.34;5201413;28;20018;-67
2022/08/10 01:28:26;;;;;;;3.80;2.75;;;;;;;16.93;89.53;102439.53;5232553;28;20058;-67
2022/08/10 01:31:00;;;;;;;4.57;2.30;;;;;;;16.78;88.90;102438.84;5218504;28;20384;-66
2022/08/10 01:33:35;;;;;;;4.50;2.50;;;;;;;16.89;90.66;102438.03;5211623;28;20383;-66
2022/08/10 01:36:28;;;;;;;4.55;2.90;;;;;;;16.83;87.53;102437.53;5212476;28;20035;-67
2022/08/10 01:39:03;;;;;;;4.90;2.63;;;;;;;16.82;87.87;102445.78;5215376;28;20655;-66
2022/08/10 01:41:39;;;;;;;;;;;;;;;16.82;85.56;102435.84;5208702;28;20050;-67
2022/08/10 01:44:13;;;;;;;3.95;2.60;;;;;;;16.75;88.96;102445.34;5216612;28;19921;-67
2022/08/10 01:46:49;;;;;;;5.93;2.47;;;;;;;16.67;88.29;102443.22;5243450;28;20028;-66
2022/08/10 01:49:22;;;;;;;5.68;2.60;;;;;;;16.70;89.28;102438.59;5212950;28;20041;-67
2022/08/10 01:51:57;;;;;;;4.00;2.60;;;;;;;16.64;89.11;102435.41;5203822;28;20049;-66
2022/08/10 01:54:30;;;;;;;3.35;2.50;;;;;;;16.66;90.07;102432.56;5214809;28;20038;-67
2022/08/10 01:57:02;;;;;;;3.92;2.78;;;;;;;16.56;89.36;102440.50;5206491;28;20030;-67
2022/08/10 01:59:37;;;;;;;6.13;3.08;;;;;;;16.54;89.00;102437.06;5212524;28;20471;-66
2022/08/10 02:02:12;;;;;;;5.13;2.85;;;;;;;16.50;90.58;102430.19;5205354;28;20033;-66
2022/08/10 02:04:47;;;;;;;5.30;2.88;;;;;;;16.48;91.93;102440.22;5205483;28;20051;-67
2022/08/10 02:07:22;;;;;;;5.07;2.72;;;;;;;16.35;90.38;102443.00;5233138;28;20023;-66
2022/08/10 02:09:57;;;;;;;4.00;2.63;;;;;;;16.36;90.71;102441.19;5245402;27;20043;-66
2022/08/10 02:12:32;;;;;;;5.68;2.67;;;;;;;16.33;91.73;102433.31;5215496;28;20059;-67
2022/08/10 02:15:07;;;;;;;4.57;2.80;;;;;;;16.26;91.42;102438.28;5213700;28;20585;-67
2022/08/10 02:17:42;;;;;;;4.75;2.80;;;;;;;16.26;90.89;102435.59;5208091;28;20502;-67
2022/08/10 02:20:24;;;;;;;4.63;3.10;;;;;;;16.29;92.16;102439.91;5207964;28;20030;-67
2022/08/10 02:23:01;;;;;;;5.63;2.90;;;;;;;16.23;91.60;102428.63;5217777;28;20374;-66
2022/08/10 02:25:33;;;;;;;5.63;2.95;;;;;;;16.23;92.60;102427.78;5223033;28;20094;-67
2022/08/10 02:28:06;;;;;;;4.55;2.80;;;;;;;16.17;91.62;102428.25;5204929;28;20091;-66
2022/08/10 02:30:38;;;;;;;4.20;3.28;;;;;;;16.18;91.74;102428.09;5251142;28;20029;-66
2022/08/10 02:33:10;;;;;;;4.03;2.80;;;;;;;16.18;92.65;102428.09;5249651;28;20032;-67
2022/08/10 02:35:42;;;;;;;6.00;2.97;;;;;;;16.13;92.23;102433.00;5228492;28;20042;-67
2022/08/10 02:38:18;;;;;;;6.40;3.08;;;;;;;16.12;92.70;102433.09;5222310;28;20034;-66
2022/08/10 02:40:55;;;;;;;6.80;3.00;;;;;;;16.12;92.60;102435.78;5224468;28;20483;-66
2022/08/10 02:43:34;;;;;;;5.05;3.00;;;;;;;16.11;92.69;102434.94;5213789;28;20046;-67
2022/08/10 02:46:09;;;;;;;5.00;3.30;;;;;;;16.05;92.44;102432.69;5254258;28;20026;-66
2022/08/10 02:48:44;;;;;;;5.18;3.03;;;;;;;15.98;93.41;102428.75;5226383;28;20575;-67
2022/08/10 02:51:26;;;;;;;5.07;3.33;;;;;;;15.95;92.98;102423.59;5236519;28;21789;-67
2022/08/10 02:54:06;;;;;;;4.82;3.17;;;;;;;15.91;93.44;102422.94;5218502;28;20511;-70
2022/08/10 02:56:45;;;;;;;4.47;3.20;;;;;;;15.86;93.60;102417.91;5241847;28;20030;-68
2022/08/10 02:59:33;;;;;;;5.22;3.45;;;;;;;15.84;93.21;102410.94;5229680;28;20039;-67
2022/08/10 03:02:07;;;;;;;6.47;3.15;;;;;;;15.82;94.95;102416.44;5223767;28;20038;-67
2022/08/10 03:04:44;;;;;;;5.10;3.25;;;;;;;15.77;94.58;102415.03;5232499;28;20023;-67
2022/08/10 03:07:19;;;;;;;4.15;3.05;;;;;;;15.80;96.19;102413.00;5225272;28;20484;-67
2022/08/10 03:09:51;;;;;;;5.40;3.53;;;;;;;15.84;97.41;102410.94;5248688;28;20025;-67
2022/08/10 03:12:23;;;;;;;4.47;3.20;;;;;;;15.84;95.90;102408.25;5218422;28;20412;-67
2022/08/10 03:14:56;;;;;;;5.45;3.60;;;;;;;15.76;94.75;102408.81;5233059;28;20035;-67
2022/08/10 03:17:28;;;;;;;6.43;3.42;;;;;;;15.68;95.26;102406.63;5225570;28;20041;-67
2022/08/10 03:20:01;;;;;;;5.60;3.95;;;;;;;15.65;96.06;102403.31;5234697;28;20440;-67
2022/08/10 03:22:33;;;;;;;5.68;3.90;;;;;;;15.73;98.58;102405.44;5236899;28;20031;-67
2022/08/10 03:25:07;;;;;;;4.60;3.47;;;;;;;15.62;97.23;102403.53;5275233;28;20035;-67
2022/08/10 03:27:41;;;;;;;5.45;4.05;;;;;;;15.66;97.23;102405.88;5227049;28;20027;-67
2022/08/10 03:30:12;;;;;;;;;;;;;;;15.69;94.19;102412.88;5218935;27;20507;-67
2022/08/10 03:32:45;;;;;;;5.43;3.67;;;;;;;15.61;96.62;102409.88;5224172;28;20032;-67
2022/08/10 03:35:17;;;;;;;4.68;3.83;;;;;;;15.55;96.33;102399.56;5225995;28;20038;-67
2022/08/10 03:37:48;;;;;;;9.30;4.60;;;;;;;15.51;96.89;102398.91;5215197;28;20034;-67
2022/08/10 03:40:20;;;;;;;6.25;4.05;;;;;;;15.48;97.31;102400.00;5226717;28;20427;-67
2022/08/10 03:42:54;;;;;;;6.15;3.97;;;;;;;15.49;97.33;102409.81;5236879;28;20123;-67
2022/08/10 03:45:27;;;;;;;6.30;4.05;;;;;;;15.42;97.58;102410.38;5221949;28;20476;-67
2022/08/10 03:48:00;;;;;;;7.20;4.20;;;;;;;15.38;97.50;102411.53;5260304;28;20063;-67
2022/08/10 03:50:33;;;;;;;6.22;4.07;;;;;;;15.38;97.89;102415.09;5229737;28;20027;-67
2022/08/10 03:53:04;;;;;;;5.50;4.07;;;;;;;15.38;98.43;102411.53;5219799;28;20019;-67
2022/08/10 03:55:35;;;;;;;6.32;4.32;;;;;;;15.40;98.42;102415.00;5232206;28;20031;-67
2022/08/10 03:58:07;;;;;;;7.47;4.15;;;;;;;15.35;98.48;102422.53;5219234;28;20598;-67
2022/08/10 04:00:39;;;;;;;6.43;4.53;;;;;;;15.35;98.54;102418.00;5262423;28;21880;-67
2022/08/10 04:03:11;;;;;;;6.72;4.40;;;;;;;15.37;99.61;102421.44;5211031;28;20676;-67
2022/08/10 04:05:43;;;;;;;7.10;4.40;;;;;;;15.33;99.57;102411.03;5235253;28;20038;-67
2022/08/10 04:08:16;;;;;;;6.32;4.45;;;;;;;15.26;99.46;102410.59;5235768;28;20038;-67
2022/08/10 04:10:47;;;;;;;4.93;4.38;;;;;;;15.19;99.32;102414.72;5247179;28;20751;-67
2022/08/10 04:13:18;;;;;;;7.10;4.57;;;;;;;15.25;100.00;102406.19;5249806;28;20432;-67
2022/08/10 04:15:49;;;;;;;8.60;4.50;;;;;;;15.25;100.00;102419.66;5218079;28;20093;-67
2022/08/10 04:18:21;;;;;;;9.05;4.80;;;;;;;15.24;100.00;102420.59;5227348;28;20425;-67
2022/08/10 04:20:57;;;;;;;5.63;4.70;;;;;;;15.12;100.00;102410.72;5219424;28;20688;-67
2022/08/10 04:23:32;;;;;;;7.95;4.68;;;;;;;15.14;100.00;102415.03;5251570;28;20040;-67
2022/08/10 04:26:03;;;;;;;7.30;4.88;;;;;;;15.23;100.00;102419.75;5215527;28;20079;-67
2022/08/10 04:28:35;;;;;;;7.07;5.25;;;;;;;15.09;100.00;102417.16;5218963;28;20487;-67
2022/08/10 04:31:08;;;;;;;6.70;4.68;;;;;;;15.00;100.00;102423.22;5227046;28;20071;-67
2022/08/10 04:33:44;;;;;;;7.60;5.18;;;;;;;15.04;100.00;102420.19;5228521;28;20026;-67
2022/08/10 04:36:20;;;;;;;8.07;4.90;;;;;;;15.07;100.00;102422.66;5221028;28;20030;-67
2022/08/10 04:38:53;;;;;;;6.38;4.93;;;;;;;15.01;100.00;102423.06;5230397;28;20082;-68
2022/08/10 04:41:26;;;;;;;6.45;4.82;;;;;;;14.97;100.00;102423.41;5238762;28;20054;-68
2022/08/10 04:43:58;;;;;;;7.35;5.00;;;;;;;15.03;100.00;102421.16;5219193;28;20029;-68
2022/08/10 04:46:29;;;;;;;6.75;4.60;;;;;;;14.92;100.00;102423.75;5219787;28;20526;-68
2022/08/10 04:49:00;;;;;;;5.93;5.03;;;;;;;14.95;100.00;102417.28;5215961;28;20026;-67
2022/08/10 04:51:32;;;;;;;7.35;4.80;;;;;;;14.88;100.00;102416.84;5237314;28;20037;-68
2022/08/10 04:54:03;;;;;;;5.93;4.90;;;;;;;14.96;100.00;102409.13;5236296;28;20030;-68
2022/08/10 04:56:36;;;;;;;8.18;4.70;;;;;;;14.92;100.00;102417.50;5217207;28;20038;-68
2022/08/10 04:59:10;;;;;;;6.07;4.90;;;;;;;14.96;100.00;102414.50;5206005;28;20060;-68
2022/08/10 05:01:41;;;;;;;9.18;5.95;;;;;;;15.01;100.00;102411.47;5252905;28;20108;-67
2022/08/10 05:04:12;;;;;;;8.23;5.15;;;;;;;14.94;100.00;102402.13;5219268;28;20119;-68
2022/08/10 05:06:43;;;;;;;8.50;5.00;;;;;;;15.04;100.00;102413.97;5247524;28;20386;-68
2022/08/10 05:09:15;;;;;;;7.05;4.97;;;;;;;14.93;100.00;102412.00;5249923;28;20031;-68
2022/08/10 05:11:46;;;;;;;7.95;5.20;;;;;;;14.95;100.00;102414.59;5248092;28;20034;-68
2022/08/10 05:14:17;;;;;;;6.60;5.18;;;;;;;15.02;100.00;102411.38;5240752;28;20055;-68
2022/08/10 05:16:49;;;;;;;8.93;5.70;;;;;;;15.07;100.00;102411.03;5224495;28;20425;-68
2022/08/10 05:19:20;;;;;;;6.32;5.25;;;;;;;15.09;100.00;102412.66;5232472;28;20022;-68
2022/08/10 05:21:51;;;;;;;7.55;5.00;;;;;;;15.09;100.00;102415.34;5246625;28;20044;-67
2022/08/10 05:24:23;;;;;;;6.85;5.45;;;;;;;15.18;100.00;102415.66;5236013;28;20016;-67
2022/08/10 05:26:54;;;;;;;8.30;5.22;;;;;;;15.15;100.00;102415.88;5253465;28;20504;-67
2022/08/10 05:29:25;;;;;;;6.97;5.22;;;;;;;15.20;100.00;102416.41;5231977;28;20531;-68
2022/08/10 05:31:57;;;;;;;9.32;5.90;;;;;;;15.31;100.00;102424.59;5225523;28;20038;-68
2022/08/10 05:34:29;;;;;;;7.22;5.57;;;;;;;15.27;100.00;102421.25;5246211;28;20530;-68
2022/08/10 05:37:01;;;;;;;8.88;5.68;;;;;;;15.28;100.00;102420.28;5208647;28;20017;-68
2022/08/10 05:39:33;;;;;;;9.15;5.90;;;;;;;15.28;100.00;102420.28;5205741;28;20048;-67
2022/08/10 05:42:05;;;;;;;10.02;6.18;;;;;;;15.33;100.00;102432.53;5204421;28;20060;-68
2022/08/10 05:44:37;;;;;;;7.95;6.00;;;;;;;15.32;100.00;102428.97;5208383;28;20033;-68
2022/08/10 05:47:08;;;;;;;8.70;6.53;;;;;;;15.45;100.00;102427.13;5207645;28;20026;-67
2022/08/10 05:49:39;;;;;;;8.90;5.95;;;;;;;15.40;100.00;102429.31;5209915;28;20038;-68
2022/08/10 05:52:11;;;;;;;9.35;6.47;;;;;;;15.52;100.00;102426.72;5208467;28;20029;-68
2022/08/10 05:54:43;;;;;;;7.15;5.90;;;;;;;15.51;100.00;102425.81;5205464;28;20556;-68
2022/08/10 05:57:16;;;;;;;9.10;6.78;;;;;;;15.54;100.00;102435.53;5209624;28;20034;-68
2022/08/10 05:59:57;;;;;;;9.15;7.05;;;;;;;15.56;100.00;102430.88;5207379;28;20057;-68
2022/08/10 06:02:36;;;;;;;10.55;6.93;;;;;;;15.58;100.00;102431.63;5209040;28;20029;-67
2022/08/10 06:05:13;;;;;;;8.90;7.28;;;;;;;15.63;100.00;102432.16;5204453;28;20026;-67
2022/08/10 06:08:04;;;;;;;11.90;7.45;;;;;;;15.67;100.00;102428.28;5207165;28;20070;-68
2022/08/10 06:10:37;;;;;;;8.57;7.05;;;;;;;15.67;100.00;102436.34;5208834;28;20075;-68
2022/08/10 06:16:05;;;;;;;8.20;7.13;;;;;;;15.78;100.00;102433.78;5206986;28;20053;-68
2022/08/10 06:18:37;;;;;;;9.65;7.38;;;;;;;15.76;100.00;102422.25;5198995;28;20030;-68
2022/08/10 06:21:08;;;;;;;11.32;7.82;;;;;;;15.83;100.00;102431.59;5212580;28;20490;-67
2022/08/10 06:23:40;;;;;;;12.60;8.00;;;;;;;15.91;100.00;102424.78;5209267;28;20025;-68
2022/08/10 06:26:11;;;;;;;9.68;7.65;;;;;;;15.93;100.00;102429.06;5208945;28;20774;-67
2022/08/10 06:28:58;;;;;;;9.32;7.75;;;;;;;15.97;100.00;102430.56;5203368;28;20033;-68
2022/08/10 06:31:32;;;;;;;10.00;8.18;;;;;;;16.05;100.00;102428.19;5201492;28;20516;-68
2022/08/10 06:34:06;;;;;;;9.93;7.50;;;;;;;16.10;100.00;102438.59;5197312;28;20025;-66
2022/08/10 06:36:40;;;;;;;8.90;7.38;;;;;;;16.17;100.00;102434.47;5207144;28;20467;-65
2022/08/10 06:39:11;;;;;;;10.68;8.38;;;;;;;16.22;100.00;102429.63;5202868;28;20156;-65
2022/08/10 06:41:47;;;;;;;10.43;7.70;;;;;;;16.31;100.00;102422.66;5206364;28;20046;-65
2022/08/10 06:44:23;;;;;;;10.60;8.15;;;;;;;16.42;100.00;102427.25;5202442;28;20026;-66
2022/08/10 06:46:57;;;;;;;10.25;7.85;;;;;;;16.50;100.00;102416.72;5203658;28;20494;-66
2022/08/10 06:49:31;;;;;;;9.15;7.63;;;;;;;16.62;100.00;102421.16;5208786;28;20030;-66
2022/08/10 06:52:06;;;;;;;9.73;7.85;;;;;;;16.73;99.90;102435.66;5204247;28;20109;-65
2022/08/10 06:54:39;;;;;;;10.30;7.65;;;;;;;16.90;98.97;102429.00;5206934;28;20026;-66
2022/08/10 06:57:13;;;;;;;10.05;7.15;;;;;;;16.96;98.73;102429.34;5210412;28;20026;-66
2022/08/10 06:59:46;;;;;;;11.77;7.28;;;;;;;17.13;98.09;102421.78;5210053;28;20026;-66
2022/08/10 07:02:28;;;;;;;8.93;7.25;;;;;;;17.19;97.43;102434.78;5205938;28;20040;-66
2022/08/10 07:05:02;;;;;;;9.25;6.80;;;;;;;17.32;96.59;102435.53;5206894;28;21030;-66
2022/08/10 07:07:39;;;;;;;8.75;6.50;;;;;;;17.33;95.23;102442.63;5209003;28;20158;-66
2022/08/10 07:10:15;;;;;;;12.32;7.00;;;;;;;17.58;93.99;102440.66;5211638;28;20047;-65
2022/08/10 07:12:49;;;;;;;9.57;6.05;;;;;;;17.67;94.90;102436.34;5203950;28;20041;-65
2022/08/10 07:15:22;;;;;;;7.97;6.35;;;;;;;17.72;94.21;102444.91;5215765;28;20076;-66
2022/08/10 07:17:54;;;;;;;8.68;6.68;;;;;;;17.87;92.59;102440.16;5215703;28;20034;-66
2022/08/10 07:20:26;;;;;;;10.80;6.70;;;;;;;17.93;92.61;102439.63;5217797;28;20086;-66
2022/08/10 07:22:58;;;;;;;10.80;6.50;;;;;;;18.02;91.32;102444.28;5208587;28;20038;-66
2022/08/10 07:25:31;;;;;;;8.82;6.13;;;;;;;18.08;92.43;102438.38;5211219;28;20098;-66
2022/08/10 07:28:04;;;;;;;10.10;7.00;;;;;;;18.37;90.19;102444.06;5216389;28;20383;-65
2022/08/10 07:30:38;;;;;;;7.70;6.30;;;;;;;18.45;89.12;102440.69;5205897;28;20022;-65
2022/08/10 07:33:13;;;;;;;7.60;6.13;;;;;;;18.49;89.46;102447.56;5209962;28;20049;-65
2022/08/10 07:35:46;;;;;;;8.57;5.93;;;;;;;18.77;87.16;102442.47;5202645;28;20526;-65
2022/08/10 07:38:25;;;;;;;10.20;6.80;;;;;;;18.86;86.10;102443.59;5207109;28;20024;-63
2022/08/10 07:41:01;;;;;;;8.43;5.82;;;;;;;19.05;87.04;102457.22;5206923;28;20041;-65
2022/08/10 07:43:38;;;;;;;7.85;5.57;;;;;;;19.06;87.01;102448.13;5210901;28;20057;-65
2022/08/10 07:46:13;;;;;;;7.30;5.57;;;;;;;19.14;84.53;102439.34;5213462;28;20031;-67
2022/08/10 07:49:03;;;;;;;8.77;5.65;;;;;;;19.38;84.38;102449.81;5207587;28;20021;-67
2022/08/10 07:51:36;;;;;;;7.72;6.03;;;;;;;19.45;84.12;102444.75;5209368;28;20034;-67
2022/08/10 07:54:14;;;;;;;6.97;5.53;;;;;;;19.63;81.43;102451.19;5211745;28;20448;-67
2022/08/10 07:56:51;;;;;;;7.88;5.72;;;;;;;19.69;80.98;102447.09;5204461;28;20030;-67
2022/08/10 07:59:30;;;;;;;7.28;5.43;;;;;;;19.87;78.80;102439.19;5218396;28;20047;-65
2022/08/10 08:02:03;;;;;;;9.07;5.38;;;;;;;19.82;80.41;102447.72;5203136;28;20037;-65
2022/08/10 08:04:35;;;;;;;8.15;5.65;;;;;;;19.89;80.15;102454.31;5213175;28;20049;-64
2022/08/10 08:07:07;;;;;;;7.82;6.28;;;;;;;20.11;79.20;102453.19;5212542;28;20124;-64
2022/08/10 08:09:39;;;;;;;9.82;6.07;;;;;;;20.14;76.34;102454.78;5208691;28;20025;-66
2022/08/10 08:12:12;;;;;;;7.43;5.40;;;;;;;20.24;77.66;102447.50;5219003;28;20075;-66
2022/08/10 08:14:44;;;;;;;8.13;5.57;;;;;;;20.41;76.70;102448.66;5204273;28;20457;-66
2022/08/10 08:17:17;;;;;;;6.90;5.18;;;;;;;20.48;76.47;102446.22;5209851;28;20052;-66
2022/08/10 08:19:50;;;;;;;6.32;4.88;;;;;;;20.61;76.98;102452.22;5206547;28;20395;-66
2022/08/10 08:22:23;;;;;;;7.50;5.78;;;;;;;20.69;76.92;102452.38;5202948;28;20034;-66
2022/08/10 08:24:57;;;;;;;8.35;5.50;;;;;;;20.95;75.59;102447.16;5202712;28;20490;-67
2022/08/10 08:27:30;;;;;;;;;;;;;;;20.83;78.95;102447.50;5208472;28;20070;-66
2022/08/10 08:30:02;;;;;;;7.25;4.95;;;;;;;20.91;76.07;102453.06;5214991;28;19993;-67
2022/08/10 08:32:37;;;;;;;8.10;4.60;;;;;;;20.99;75.97;102447.75;5204656;28;20048;-67
2022/08/10 08:35:11;;;;;;;7.55;6.05;;;;;;;21.32;73.36;102451.78;5206702;28;20510;-67
2022/08/10 08:37:48;;;;;;;9.95;6.35;;;;;;;21.28;75.43;102447.63;5204273;28;20131;-67
2022/08/10 08:40:25;;;;;;;10.60;6.03;;;;;;;21.47;73.11;102441.31;5207855;28;20090;-67
2022/08/10 08:43:14;;;;;;;7.82;5.38;;;;;;;21.57;72.14;102441.25;5208158;28;20103;-66
2022/08/10 08:46:27;;;;;;;6.13;4.80;;;;;;;21.79;73.35;102441.88;5210482;28;20496;-66
2022/08/10 08:49:19;;;;;;;7.97;5.80;;;;;;;21.90;72.19;102449.81;5210031;28;20046;-66
2022/08/10 08:52:15;;;;;;;8.73;5.93;;;;;;;21.98;71.35;102447.16;5204510;28;20165;-66
2022/08/10 08:55:01;;;;;;;7.60;5.47;;;;;;;22.17;69.48;102451.63;5206052;28;20099;-66
2022/08/10 08:57:55;;;;;;;7.90;5.53;;;;;;;22.16;70.73;102449.91;5209660;28;20049;-66
2022/08/10 09:00:41;;;;;;;9.40;5.88;;;;;;;22.30;67.31;102445.81;5202947;28;20037;-66
2022/08/10 09:03:42;;;;;;;9.07;5.80;;;;;;;22.43;69.56;102443.53;5206163;28;20027;-66
2022/08/10 09:06:42;;;;;;;9.63;7.07;;;;;;;22.38;68.89;102442.31;5205388;28;20041;-66
2022/08/10 09:09:31;;;;;;;8.27;5.63;;;;;;;22.64;67.57;102434.19;5203283;28;20475;-67
2022/08/10 09:12:48;;;;;;;8.07;5.55;;;;;;;22.75;68.26;102439.38;5206192;28;20055;-66
2022/08/10 09:15:30;;;;;;;7.32;5.10;;;;;;;22.81;65.07;102425.13;5219401;28;20053;-66
2022/08/10 09:18:32;;;;;;;11.73;4.82;;;;;;;23.01;66.22;102428.53;5215854;28;20029;-66
2022/08/10 09:21:18;;;;;;;7.35;5.72;;;;;;;23.24;63.44;102430.69;5203740;28;20125;-67
2022/08/10 09:24:00;;;;;;;6.82;5.00;;;;;;;23.29;64.38;102429.19;5205763;28;20037;-67
2022/08/10 09:26:45;;;;;;;9.45;5.07;;;;;;;23.46;63.89;102427.41;5208650;28;20033;-66
2022/08/10 09:29:35;;;;;;;7.55;5.25;;;;;;;23.55;63.52;102421.97;5207956;28;20065;-67
2022/08/10 09:32:09;;;;;;;7.43;4.30;;;;;;;23.66;62.44;102418.94;5203414;28;20065;-67
2022/08/10 09:35:10;;;;;;;8.70;3.83;;;;;;;23.64;63.23;102427.31;5207632;28;20044;-66
2022/08/10 09:37:59;;;;;;;7.30;5.70;;;;;;;23.66;61.14;102419.81;5213620;28;20047;-66
2022/08/10 09:40:41;;;;;;;7.15;4.45;;;;;;;23.73;62.26;102416.44;5204920;28;20049;-67
2022/08/10 09:43:30;;;;;;;6.03;4.07;;;;;;;23.84;63.05;102413.44;5205628;28;20147;-67
2022/08/10 09:46:20;;;;;;;5.70;4.82;;;;;;;24.01;60.64;102414.28;5210190;28;20030;-66
2022/08/10 09:49:07;;;;;;;6.88;4.60;;;;;;;23.98;61.70;102410.03;5216044;28;20093;-67
2022/08/10 09:51:47;;;;;;;7.90;5.10;;;;;;;24.19;61.06;102412.28;5214166;28;20696;-66
2022/08/10 09:54:49;;;;;;;9.40;5.03;;;;;;;24.33;61.22;102399.81;5210553;28;20033;-66
2022/08/10 09:57:38;;;;;;;7.43;4.60;;;;;;;24.43;57.65;102400.53;5213980;28;20029;-67
2022/08/10 10:00:13;;;;;;;7.05;3.78;;;;;;;24.64;57.19;102396.41;5208518;28;20159;-67
2022/08/10 10:03:00;;;;;;;6.75;3.95;;;;;;;24.74;56.66;102394.38;5222565;28;20030;-67
2022/08/10 10:05:49;;;;;;;7.47;3.83;;;;;;;24.73;59.79;102392.66;5206008;28;20833;-67
2022/08/10 10:08:28;;;;;;;7.57;5.00;;;;;;;24.75;56.09;102381.56;5208567;28;20026;-67
2022/08/10 10:11:16;;;;;;;6.15;4.07;;;;;;;24.96;58.23;102389.19;5206817;28;20363;-67
2022/08/10 10:14:15;;;;;;;6.30;3.40;;;;;;;25.02;56.12;102388.50;5209230;28;20038;-66
2022/08/10 10:17:00;;;;;;;6.72;3.53;;;;;;;25.01;54.55;102382.19;5207240;28;20407;-67
2022/08/10 10:20:10;;;;;;;5.22;3.90;;;;;;;25.15;54.51;102383.31;5202007;28;20029;-67
2022/08/10 10:22:56;;;;;;;7.13;3.42;;;;;;;25.23;54.45;102369.66;5198573;28;20064;-67
2022/08/10 10:25:31;;;;;;;6.30;3.13;;;;;;;25.35;53.96;102372.00;5208583;28;20094;-66
2022/08/10 10:28:20;;;;;;;6.57;3.40;;;;;;;25.39;53.95;102373.34;5208534;28;20026;-67
2022/08/10 10:31:05;;;;;;;5.70;3.33;;;;;;;25.45;50.85;102364.44;5204425;28;20029;-66
2022/08/10 10:33:50;;;;;;;4.13;2.65;;;;;;;25.51;52.84;102361.00;5207455;28;20037;-67
2022/08/10 10:36:23;;;;;;;5.18;2.70;;;;;;;25.63;50.30;102367.75;5213676;28;20527;-65
2022/08/10 10:38:57;;;;;;;6.60;2.80;;;;;;;25.82;48.48;102358.22;5209908;28;20387;-66
2022/08/10 10:41:39;;;;;;;6.28;3.00;;;;;;;26.12;47.75;102358.38;5223625;28;20427;-66
2022/08/10 10:44:34;;;;;;;6.80;3.03;;;;;;;26.00;47.99;102351.63;5201775;28;20040;-66
2022/08/10 10:47:50;;;;;;;8.50;2.80;;;;;;;26.02;50.88;102347.69;5206821;28;20037;-66
2022/08/10 10:50:30;;;;;;;5.88;2.38;;;;;;;26.11;48.56;102347.63;5223075;28;20664;-66
2022/08/10 10:53:46;;;;;;;4.22;2.28;;;;;;;26.18;48.68;102341.22;5209405;28;20162;-65
2022/08/10 10:56:48;;;;;;;4.35;2.65;;;;;;;26.11;47.55;102339.41;5204416;28;20613;-66
2022/08/10 10:59:41;;;;;;;3.90;2.50;;;;;;;26.21;46.20;102343.59;5205068;28;20437;-65
2022/08/10 11:02:42;;;;;;;6.50;2.60;;;;;;;26.33;47.61;102333.06;5207711;28;20041;-65
2022/08/10 11:05:43;;;;;;;6.75;2.60;;;;;;;26.42;47.74;102331.06;5208064;28;20475;-66
2022/08/10 11:08:22;;;;;;;5.65;2.60;;;;;;;26.64;46.00;102328.47;5206045;28;20048;-65
2022/08/10 11:11:02;;;;;;;6.65;2.85;;;;;;;26.70;45.09;102322.28;5202634;28;20057;-66
2022/08/10 11:13:40;;;;;;;6.07;2.40;;;;;;;26.59;44.98;102327.16;5202744;28;20156;-65
2022/08/10 11:16:27;;;;;;;4.40;2.50;;;;;;;26.58;44.39;102314.50;5205096;28;20076;-66
2022/08/10 11:19:25;;;;;;;4.70;2.42;;;;;;;26.72;45.90;102322.94;5204292;28;20041;-65
2022/08/10 11:22:29;;;;;;;5.95;2.83;;;;;;;26.72;45.07;102303.75;5204906;28;20403;-66
2022/08/10 11:25:32;;;;;;;6.28;2.70;;;;;;;26.88;43.97;102306.28;5206323;28;20031;-65
2022/08/10 11:28:29;;;;;;;5.90;2.60;;;;;;;26.92;45.47;102306.75;5225194;28;20116;-66
2022/08/10 11:31:09;;;;;;;4.75;2.30;;;;;;;26.98;44.58;102306.84;5210320;28;20292;-65
2022/08/10 11:33:56;;;;;;;8.10;2.42;;;;;;;27.04;43.15;102307.97;5205021;28;21815;-65
2022/08/10 11:36:40;;;;;;;7.72;2.53;;;;;;;27.20;42.41;102301.44;5202147;28;20133;-65
2022/08/10 11:39:29;;;;;;;4.32;2.40;;;;;;;27.41;42.31;102311.59;5214629;28;20082;-65
2022/08/10 11:42:20;;;;;;;5.82;2.17;;;;;;;27.23;44.46;102308.41;5217126;28;20043;-66
2022/08/10 11:45:24;;;;;;;5.53;2.83;;;;;;;27.33;45.46;102309.00;5210828;28;20803;-66
2022/08/10 11:48:08;;;;;;;4.93;2.63;;;;;;;27.46;42.51;102300.03;5205270;28;20034;-65
2022/08/10 11:50:58;;;;;;;;;;;;;;;27.31;45.11;102303.69;5218880;28;20032;-65
2022/08/10 11:53:44;;;;;;;5.05;2.40;;;;;;;27.35;41.84;102299.53;5206362;28;19957;-65
2022/08/10 11:56:27;;;;;;;4.90;2.75;;;;;;;27.34;43.72;102292.34;5204909;28;20079;-66
2022/08/10 12:01:50;;;;;;;5.57;2.80;;;;;;;27.30;41.96;102288.28;5206343;28;20045;-66
2022/08/10 12:04:23;;;;;;;5.20;2.65;;;;;;;27.55;39.28;102288.75;5208929;28;20025;-65
2022/08/10 12:06:56;;;;;;;8.15;2.45;;;;;;;27.35;38.60;102279.50;5205314;28;20131;-65
2022/08/10 12:09:28;;;;;;;3.78;2.60;;;;;;;27.51;40.08;102284.72;5205410;28;20137;-66
2022/08/10 12:12:01;;;;;;;6.82;3.10;;;;;;;27.34;42.30;102294.22;5213018;28;20122;-66
2022/08/10 12:14:39;;;;;;;6.15;2.78;;;;;;;27.56;41.00;102275.91;5202573;28;20515;-66
2022/08/10 12:17:32;;;;;;;5.60;2.60;;;;;;;27.60;43.34;102274.47;5214242;28;20040;-66
2022/08/10 12:20:14;;;;;;;7.30;2.70;;;;;;;27.65;41.16;102268.41;5210180;28;20052;-66